Lamb, Illinois
Current Conditions -  °F | °C
As of 6:15 PM on Wednesday 26 Nov 2014 (Local Time) from K5M9 Reporting Station
Light Rain Light Rain  
Wind Chill: 35°   Ceiling: 900
Heat Index: 35°   Visibility: 5mi
Dew Point: 34°   Wind: 0mph
Humidity: 97%   Direction: NA
Pressure: 30.01"   Gusts: NA
Location:  37.5407°N, 88.2414°W
Report Text: K5M9 270015Z AUTO 00000KT 5SM -RA OVC009 02/01 A3001 RMK AO2 T00150011
Loading
Personal Weather Stations






























Interactive Weather Map New forecast layout! Learn more

10-Day Weather Forecast

Advertisements
Track Severe Weather on mobile